sensor_id;sensor_type;location;lat;lon;timestamp;pressure;altitude;pressure_sealevel;temperature;humidity
64402;BME280;50724;42.376;23.768;2023-02-08T00:01:10;94526.09;;;-7.61;82.73
64402;BME280;50724;42.376;23.768;2023-02-08T00:04:11;94528.03;;;-7.75;82.74
64402;BME280;50724;42.376;23.768;2023-02-08T00:07:11;94536.69;;;-7.87;83.61
64402;BME280;50724;42.376;23.768;2023-02-08T00:10:12;94531.63;;;-7.90;83.61
64402;BME280;50724;42.376;23.768;2023-02-08T00:13:12;94530.19;;;-8.04;84.56
64402;BME280;50724;42.376;23.768;2023-02-08T00:16:15;94535.34;;;-8.10;85.05
64402;BME280;50724;42.376;23.768;2023-02-08T00:19:17;94543.81;;;-8.10;84.77
64402;BME280;50724;42.376;23.768;2023-02-08T00:22:17;94535.22;;;-8.01;84.57
64402;BME280;50724;42.376;23.768;2023-02-08T00:25:18;94540.22;;;-7.97;84.44
64402;BME280;50724;42.376;23.768;2023-02-08T00:28:18;94541.53;;;-7.73;83.26
64402;BME280;50724;42.376;23.768;2023-02-08T00:31:19;94544.00;;;-7.67;83.11
64402;BME280;50724;42.376;23.768;2023-02-08T00:34:19;94551.75;;;-7.78;83.19
64402;BME280;50724;42.376;23.768;2023-02-08T00:37:20;94546.78;;;-7.84;83.52
64402;BME280;50724;42.376;23.768;2023-02-08T00:40:20;94549.72;;;-7.56;83.02
64402;BME280;50724;42.376;23.768;2023-02-08T00:43:21;94559.91;;;-7.57;83.34
64402;BME280;50724;42.376;23.768;2023-02-08T00:46:21;94560.59;;;-7.49;83.02
64402;BME280;50724;42.376;23.768;2023-02-08T00:49:22;94562.06;;;-7.35;83.22
64402;BME280;50724;42.376;23.768;2023-02-08T00:52:22;94565.50;;;-7.37;83.04
64402;BME280;50724;42.376;23.768;2023-02-08T00:55:23;94570.03;;;-7.56;84.29
64402;BME280;50724;42.376;23.768;2023-02-08T00:58:23;94568.88;;;-7.37;83.99
64402;BME280;50724;42.376;23.768;2023-02-08T01:01:24;94564.81;;;-7.47;84.81
64402;BME280;50724;42.376;23.768;2023-02-08T01:04:24;94561.00;;;-7.23;84.43
64402;BME280;50724;42.376;23.768;2023-02-08T01:07:25;94561.22;;;-7.34;84.37
64402;BME280;50724;42.376;23.768;2023-02-08T01:10:25;94568.06;;;-7.39;83.08
64402;BME280;50724;42.376;23.768;2023-02-08T01:13:26;94569.63;;;-7.32;81.99
64402;BME280;50724;42.376;23.768;2023-02-08T01:16:29;94581.34;;;-7.23;82.04
64402;BME280;50724;42.376;23.768;2023-02-08T01:19:30;94585.50;;;-7.19;81.68
64402;BME280;50724;42.376;23.768;2023-02-08T01:22:31;94581.88;;;-7.06;81.36
64402;BME280;50724;42.376;23.768;2023-02-08T01:25:31;94581.16;;;-7.13;81.26
64402;BME280;50724;42.376;23.768;2023-02-08T01:28:32;94572.53;;;-7.06;81.47
64402;BME280;50724;42.376;23.768;2023-02-08T01:31:36;94571.59;;;-7.00;81.26
64402;BME280;50724;42.376;23.768;2023-02-08T01:34:36;94579.50;;;-7.15;81.71
64402;BME280;50724;42.376;23.768;2023-02-08T01:37:37;94576.81;;;-7.06;80.22
64402;BME280;50724;42.376;23.768;2023-02-08T01:40:37;94576.81;;;-7.08;81.55
64402;BME280;50724;42.376;23.768;2023-02-08T01:44:01;94580.97;;;-7.02;82.12
64402;BME280;50724;42.376;23.768;2023-02-08T01:47:02;94574.84;;;-6.93;81.58
64402;BME280;50724;42.376;23.768;2023-02-08T01:50:02;94576.59;;;-6.95;82.09
64402;BME280;50724;42.376;23.768;2023-02-08T01:53:03;94582.13;;;-6.74;81.32
64402;BME280;50724;42.376;23.768;2023-02-08T01:56:07;94584.97;;;-6.90;82.26
64402;BME280;50724;42.376;23.768;2023-02-08T01:59:13;94585.06;;;-6.95;81.52
64402;BME280;50724;42.376;23.768;2023-02-08T02:02:19;94579.19;;;-6.99;81.07
64402;BME280;50724;42.376;23.768;2023-02-08T02:05:22;94584.69;;;-7.20;82.96
64402;BME280;50724;42.376;23.768;2023-02-08T02:08:24;94582.50;;;-7.41;83.35
64402;BME280;50724;42.376;23.768;2023-02-08T02:11:25;94590.41;;;-7.59;83.42
64402;BME280;50724;42.376;23.768;2023-02-08T02:14:26;94584.66;;;-7.70;83.98
64402;BME280;50724;42.376;23.768;2023-02-08T02:17:27;94592.13;;;-7.61;83.97
64402;BME280;50724;42.376;23.768;2023-02-08T02:34:03;94585.72;;;-7.33;83.50
64402;BME280;50724;42.376;23.768;2023-02-08T02:43:59;94587.00;;;-7.59;83.98
64402;BME280;50724;42.376;23.768;2023-02-08T02:47:30;94590.47;;;-7.62;85.11
64402;BME280;50724;42.376;23.768;2023-02-08T02:50:31;94596.28;;;-7.57;85.15
64402;BME280;50724;42.376;23.768;2023-02-08T02:56:43;94602.56;;;-7.79;85.20
64402;BME280;50724;42.376;23.768;2023-02-08T02:59:45;94608.72;;;-7.97;85.67
64402;BME280;50724;42.376;23.768;2023-02-08T03:02:45;94614.38;;;-8.36;86.12
64402;BME280;50724;42.376;23.768;2023-02-08T03:05:46;94616.00;;;-8.32;86.50
64402;BME280;50724;42.376;23.768;2023-02-08T03:09:03;94610.03;;;-8.26;86.15
64402;BME280;50724;42.376;23.768;2023-02-08T03:25:07;94627.78;;;-8.99;87.39
64402;BME280;50724;42.376;23.768;2023-02-08T03:31:38;94640.69;;;-9.25;89.08
64402;BME280;50724;42.376;23.768;2023-02-08T03:35:02;94642.56;;;-9.47;90.30
64402;BME280;50724;42.376;23.768;2023-02-08T03:38:07;94649.19;;;-9.29;91.03
64402;BME280;50724;42.376;23.768;2023-02-08T03:41:15;94651.72;;;-9.29;90.46
64402;BME280;50724;42.376;23.768;2023-02-08T03:44:21;94653.53;;;-9.43;90.51
64402;BME280;50724;42.376;23.768;2023-02-08T03:47:26;94651.78;;;-9.37;89.89
64402;BME280;50724;42.376;23.768;2023-02-08T03:50:28;94661.06;;;-9.36;90.52
64402;BME280;50724;42.376;23.768;2023-02-08T03:53:30;94658.41;;;-9.25;90.92
64402;BME280;50724;42.376;23.768;2023-02-08T04:00:08;94653.59;;;-9.52;91.49
64402;BME280;50724;42.376;23.768;2023-02-08T04:03:24;94660.00;;;-9.11;91.98
64402;BME280;50724;42.376;23.768;2023-02-08T04:06:26;94663.19;;;-8.92;91.37
64402;BME280;50724;42.376;23.768;2023-02-08T04:09:27;94657.16;;;-8.80;90.61
64402;BME280;50724;42.376;23.768;2023-02-08T04:12:27;94664.91;;;-8.94;90.44
64402;BME280;50724;42.376;23.768;2023-02-08T04:15:27;94665.75;;;-8.96;90.52
64402;BME280;50724;42.376;23.768;2023-02-08T04:18:28;94680.16;;;-9.01;89.92
64402;BME280;50724;42.376;23.768;2023-02-08T04:21:28;94682.81;;;-9.12;89.44
64402;BME280;50724;42.376;23.768;2023-02-08T04:24:29;94684.63;;;-9.26;90.86
64402;BME280;50724;42.376;23.768;2023-02-08T04:27:29;94688.69;;;-9.10;91.59
64402;BME280;50724;42.376;23.768;2023-02-08T04:30:30;94685.22;;;-8.98;90.85
64402;BME280;50724;42.376;23.768;2023-02-08T04:33:39;94694.53;;;-9.02;90.90
64402;BME280;50724;42.376;23.768;2023-02-08T04:36:48;94692.78;;;-8.94;90.73
64402;BME280;50724;42.376;23.768;2023-02-08T04:39:49;94690.63;;;-9.42;90.61
64402;BME280;50724;42.376;23.768;2023-02-08T04:42:49;94690.06;;;-9.82;92.13
64402;BME280;50724;42.376;23.768;2023-02-08T04:45:50;94689.19;;;-9.73;92.82
64402;BME280;50724;42.376;23.768;2023-02-08T04:48:50;94698.38;;;-9.63;92.65
64402;BME280;50724;42.376;23.768;2023-02-08T04:51:51;94700.88;;;-9.54;92.62
64402;BME280;50724;42.376;23.768;2023-02-08T04:54:51;94703.53;;;-9.78;91.86
64402;BME280;50724;42.376;23.768;2023-02-08T04:57:51;94707.06;;;-10.10;92.79
64402;BME280;50724;42.376;23.768;2023-02-08T05:00:52;94715.47;;;-10.02;93.74
64402;BME280;50724;42.376;23.768;2023-02-08T05:03:52;94720.44;;;-9.87;94.24
64402;BME280;50724;42.376;23.768;2023-02-08T05:06:53;94722.88;;;-9.70;94.13
64402;BME280;50724;42.376;23.768;2023-02-08T05:09:53;94726.28;;;-9.72;94.02
64402;BME280;50724;42.376;23.768;2023-02-08T05:12:53;94733.03;;;-9.71;93.99
64402;BME280;50724;42.376;23.768;2023-02-08T05:15:54;94733.84;;;-9.66;94.00
64402;BME280;50724;42.376;23.768;2023-02-08T05:18:55;94735.47;;;-9.55;93.93
64402;BME280;50724;42.376;23.768;2023-02-08T05:21:56;94737.81;;;-9.26;93.50
64402;BME280;50724;42.376;23.768;2023-02-08T05:24:56;94739.34;;;-9.12;92.59
64402;BME280;50724;42.376;23.768;2023-02-08T05:27:58;94738.56;;;-9.15;92.14
64402;BME280;50724;42.376;23.768;2023-02-08T05:30:59;94737.63;;;-9.06;91.95
64402;BME280;50724;42.376;23.768;2023-02-08T05:33:59;94743.44;;;-8.91;91.54
64402;BME280;50724;42.376;23.768;2023-02-08T05:36:59;94740.78;;;-8.79;90.74
64402;BME280;50724;42.376;23.768;2023-02-08T05:40:09;94742.34;;;-8.67;90.31
64402;BME280;50724;42.376;23.768;2023-02-08T05:43:15;94744.69;;;-8.45;89.23
64402;BME280;50724;42.376;23.768;2023-02-08T05:46:15;94739.59;;;-8.43;88.27
64402;BME280;50724;42.376;23.768;2023-02-08T05:49:15;94749.69;;;-8.38;88.70
64402;BME280;50724;42.376;23.768;2023-02-08T05:52:16;94748.81;;;-8.36;88.64
64402;BME280;50724;42.376;23.768;2023-02-08T05:55:16;94751.97;;;-8.20;88.64
64402;BME280;50724;42.376;23.768;2023-02-08T05:58:17;94749.19;;;-7.95;87.69
64402;BME280;50724;42.376;23.768;2023-02-08T06:01:17;94756.72;;;-7.92;87.50
64402;BME280;50724;42.376;23.768;2023-02-08T06:04:18;94752.84;;;-7.51;87.97
64402;BME280;50724;42.376;23.768;2023-02-08T06:07:18;94753.34;;;-7.27;86.31
64402;BME280;50724;42.376;23.768;2023-02-08T06:10:19;94755.84;;;-7.25;84.37
64402;BME280;50724;42.376;23.768;2023-02-08T06:13:19;94746.00;;;-7.46;85.07
64402;BME280;50724;42.376;23.768;2023-02-08T06:16:19;94764.75;;;-7.55;85.89
64402;BME280;50724;42.376;23.768;2023-02-08T06:19:20;94761.09;;;-7.37;85.99
64402;BME280;50724;42.376;23.768;2023-02-08T06:22:20;94761.72;;;-7.22;85.28
64402;BME280;50724;42.376;23.768;2023-02-08T06:25:21;94756.72;;;-7.26;86.10
64402;BME280;50724;42.376;23.768;2023-02-08T06:28:21;94765.28;;;-7.33;86.47
64402;BME280;50724;42.376;23.768;2023-02-08T06:31:21;94768.69;;;-7.34;86.58
64402;BME280;50724;42.376;23.768;2023-02-08T06:34:22;94766.94;;;-7.31;86.84
64402;BME280;50724;42.376;23.768;2023-02-08T06:37:22;94769.72;;;-6.89;84.82
64402;BME280;50724;42.376;23.768;2023-02-08T06:40:23;94765.75;;;-7.07;83.89
64402;BME280;50724;42.376;23.768;2023-02-08T06:43:24;94769.69;;;-7.46;85.63
64402;BME280;50724;42.376;23.768;2023-02-08T06:46:25;94772.22;;;-7.44;86.03
64402;BME280;50724;42.376;23.768;2023-02-08T06:49:25;94780.41;;;-7.26;84.89
64402;BME280;50724;42.376;23.768;2023-02-08T06:52:25;94781.06;;;-7.12;84.22
64402;BME280;50724;42.376;23.768;2023-02-08T06:55:26;94780.13;;;-7.05;84.99
64402;BME280;50724;42.376;23.768;2023-02-08T06:58:26;94780.50;;;-6.74;84.49
64402;BME280;50724;42.376;23.768;2023-02-08T07:01:27;94781.22;;;-6.67;84.73
64402;BME280;50724;42.376;23.768;2023-02-08T07:04:27;94779.06;;;-6.38;82.92
64402;BME280;50724;42.376;23.768;2023-02-08T07:07:27;94778.38;;;-6.49;84.30
64402;BME280;50724;42.376;23.768;2023-02-08T07:10:28;94783.91;;;-6.24;83.72
64402;BME280;50724;42.376;23.768;2023-02-08T07:13:28;94788.78;;;-6.14;81.64
64402;BME280;50724;42.376;23.768;2023-02-08T07:16:29;94798.44;;;-5.85;79.30
64402;BME280;50724;42.376;23.768;2023-02-08T07:19:30;94799.50;;;-5.56;78.21
64402;BME280;50724;42.376;23.768;2023-02-08T07:22:30;94797.84;;;-5.57;77.56
64402;BME280;50724;42.376;23.768;2023-02-08T07:25:30;94788.59;;;-5.61;77.48
64402;BME280;50724;42.376;23.768;2023-02-08T07:31:32;94803.78;;;-5.56;77.08
64402;BME280;50724;42.376;23.768;2023-02-08T07:34:34;94803.44;;;-5.82;76.57
64402;BME280;50724;42.376;23.768;2023-02-08T07:37:35;94809.56;;;-5.46;76.14
64402;BME280;50724;42.376;23.768;2023-02-08T07:40:35;94801.88;;;-5.45;76.10
64402;BME280;50724;42.376;23.768;2023-02-08T07:43:37;94803.28;;;-5.32;76.31
64402;BME280;50724;42.376;23.768;2023-02-08T07:46:39;94802.22;;;-5.22;75.70
64402;BME280;50724;42.376;23.768;2023-02-08T07:49:40;94802.72;;;-5.46;74.90
64402;BME280;50724;42.376;23.768;2023-02-08T07:52:40;94803.00;;;-5.58;74.71
64402;BME280;50724;42.376;23.768;2023-02-08T07:55:44;94804.56;;;-5.52;73.37
64402;BME280;50724;42.376;23.768;2023-02-08T07:58:45;94803.91;;;-5.62;74.25
64402;BME280;50724;42.376;23.768;2023-02-08T08:01:45;94803.97;;;-5.65;74.52
64402;BME280;50724;42.376;23.768;2023-02-08T08:04:46;94804.03;;;-5.70;75.21
64402;BME280;50724;42.376;23.768;2023-02-08T08:07:46;94806.34;;;-5.56;74.42
64402;BME280;50724;42.376;23.768;2023-02-08T08:10:47;94816.91;;;-5.34;73.57
64402;BME280;50724;42.376;23.768;2023-02-08T08:13:49;94816.56;;;-5.18;73.61
64402;BME280;50724;42.376;23.768;2023-02-08T08:16:49;94820.25;;;-4.91;72.33
64402;BME280;50724;42.376;23.768;2023-02-08T08:19:49;94816.63;;;-4.81;70.72
64402;BME280;50724;42.376;23.768;2023-02-08T08:22:50;94828.72;;;-4.89;70.10
64402;BME280;50724;42.376;23.768;2023-02-08T08:25:50;94823.00;;;-4.62;70.07
64402;BME280;50724;42.376;23.768;2023-02-08T08:28:51;94827.16;;;-4.58;71.30
64402;BME280;50724;42.376;23.768;2023-02-08T08:31:51;94832.69;;;-4.76;71.69
64402;BME280;50724;42.376;23.768;2023-02-08T08:34:51;94834.19;;;-4.67;69.88
64402;BME280;50724;42.376;23.768;2023-02-08T08:37:52;94834.34;;;-4.38;70.22
64402;BME280;50724;42.376;23.768;2023-02-08T08:40:54;94831.50;;;-3.92;69.58
64402;BME280;50724;42.376;23.768;2023-02-08T08:43:55;94827.78;;;-3.81;67.18
64402;BME280;50724;42.376;23.768;2023-02-08T08:46:57;94832.72;;;-3.73;66.09
64402;BME280;50724;42.376;23.768;2023-02-08T08:49:58;94838.78;;;-3.45;66.86
64402;BME280;50724;42.376;23.768;2023-02-08T08:52:58;94838.25;;;-3.27;65.39
64402;BME280;50724;42.376;23.768;2023-02-08T08:55:59;94843.91;;;-3.47;65.19
64402;BME280;50724;42.376;23.768;2023-02-08T08:59:00;94845.16;;;-3.93;68.39
64402;BME280;50724;42.376;23.768;2023-02-08T09:02:00;94842.69;;;-3.96;68.23
64402;BME280;50724;42.376;23.768;2023-02-08T09:05:00;94848.63;;;-3.96;68.70
64402;BME280;50724;42.376;23.768;2023-02-08T09:08:03;94848.44;;;-3.88;66.88
64402;BME280;50724;42.376;23.768;2023-02-08T09:11:09;94846.06;;;-4.30;68.10
64402;BME280;50724;42.376;23.768;2023-02-08T09:14:11;94843.91;;;-4.11;67.44
64402;BME280;50724;42.376;23.768;2023-02-08T09:17:12;94851.03;;;-3.90;67.30
64402;BME280;50724;42.376;23.768;2023-02-08T09:20:12;94855.44;;;-4.30;66.99
64402;BME280;50724;42.376;23.768;2023-02-08T09:23:13;94847.88;;;-4.35;68.20
64402;BME280;50724;42.376;23.768;2023-02-08T09:26:16;94852.75;;;-4.61;68.21
64402;BME280;50724;42.376;23.768;2023-02-08T09:29:17;94855.03;;;-4.49;67.67
64402;BME280;50724;42.376;23.768;2023-02-08T09:32:17;94861.97;;;-4.19;66.58
64402;BME280;50724;42.376;23.768;2023-02-08T09:35:28;94853.75;;;-4.31;66.36
64402;BME280;50724;42.376;23.768;2023-02-08T09:38:29;94863.78;;;-4.24;66.05
64402;BME280;50724;42.376;23.768;2023-02-08T09:47:56;94851.44;;;-4.06;66.45
64402;BME280;50724;42.376;23.768;2023-02-08T09:54:25;94840.94;;;-3.31;61.50
64402;BME280;50724;42.376;23.768;2023-02-08T09:57:32;94849.91;;;-2.88;59.52
64402;BME280;50724;42.376;23.768;2023-02-08T10:00:40;94840.72;;;-2.93;57.50
64402;BME280;50724;42.376;23.768;2023-02-08T10:03:43;94839.97;;;-3.27;58.59
64402;BME280;50724;42.376;23.768;2023-02-08T10:06:44;94835.19;;;-3.39;60.52
64402;BME280;50724;42.376;23.768;2023-02-08T10:09:45;94837.66;;;-3.06;58.57
64402;BME280;50724;42.376;23.768;2023-02-08T10:26:13;94827.69;;;-2.04;54.98
64402;BME280;50724;42.376;23.768;2023-02-08T10:32:49;94820.81;;;-2.56;56.13
64402;BME280;50724;42.376;23.768;2023-02-08T10:35:52;94825.22;;;-2.07;55.27
64402;BME280;50724;42.376;23.768;2023-02-08T10:38:54;94826.72;;;-2.01;55.97
64402;BME280;50724;42.376;23.768;2023-02-08T10:41:55;94825.63;;;-1.44;54.51
64402;BME280;50724;42.376;23.768;2023-02-08T10:45:17;94829.22;;;-1.01;51.89
64402;BME280;50724;42.376;23.768;2023-02-08T10:51:48;94824.38;;;-1.33;50.91
64402;BME280;50724;42.376;23.768;2023-02-08T10:54:48;94823.34;;;-1.28;52.21
64402;BME280;50724;42.376;23.768;2023-02-08T10:57:51;94827.81;;;-0.63;53.17
64402;BME280;50724;42.376;23.768;2023-02-08T11:00:53;94818.28;;;0.04;51.31
64402;BME280;50724;42.376;23.768;2023-02-08T11:07:18;94814.72;;;0.28;50.48
64402;BME280;50724;42.376;23.768;2023-02-08T11:10:23;94819.03;;;0.27;49.75
64402;BME280;50724;42.376;23.768;2023-02-08T11:13:30;94808.84;;;0.24;47.56
64402;BME280;50724;42.376;23.768;2023-02-08T11:16:32;94815.44;;;-0.32;47.22
64402;BME280;50724;42.376;23.768;2023-02-08T11:19:37;94813.44;;;-0.04;47.63
64402;BME280;50724;42.376;23.768;2023-02-08T11:22:45;94803.38;;;0.52;46.24
64402;BME280;50724;42.376;23.768;2023-02-08T11:25:45;94815.28;;;0.54;46.42
64402;BME280;50724;42.376;23.768;2023-02-08T11:32:17;94813.94;;;0.26;47.59
64402;BME280;50724;42.376;23.768;2023-02-08T11:35:21;94819.66;;;-0.75;48.52
64402;BME280;50724;42.376;23.768;2023-02-08T11:38:34;94811.00;;;-1.42;50.95
64402;BME280;50724;42.376;23.768;2023-02-08T11:41:35;94811.16;;;-1.95;51.32
64402;BME280;50724;42.376;23.768;2023-02-08T11:44:42;94805.81;;;-2.16;51.84
64402;BME280;50724;42.376;23.768;2023-02-08T11:47:45;94800.06;;;-2.22;55.34
64402;BME280;50724;42.376;23.768;2023-02-08T11:50:55;94799.78;;;-2.39;55.50
64402;BME280;50724;42.376;23.768;2023-02-08T11:53:57;94805.34;;;-2.27;56.67
64402;BME280;50724;42.376;23.768;2023-02-08T11:57:01;94800.91;;;-2.48;55.97
64402;BME280;50724;42.376;23.768;2023-02-08T12:00:23;94812.31;;;-2.30;56.17
64402;BME280;50724;42.376;23.768;2023-02-08T12:03:29;94808.81;;;-2.55;57.27
64402;BME280;50724;42.376;23.768;2023-02-08T12:10:05;94804.69;;;-2.59;57.40
64402;BME280;50724;42.376;23.768;2023-02-08T12:23:30;94803.47;;;-3.03;57.62
64402;BME280;50724;42.376;23.768;2023-02-08T12:30:44;94805.66;;;-2.36;54.94
64402;BME280;50724;42.376;23.768;2023-02-08T12:34:00;94797.44;;;-1.94;56.08
64402;BME280;50724;42.376;23.768;2023-02-08T12:41:08;94804.25;;;-2.20;57.03
64402;BME280;50724;42.376;23.768;2023-02-08T12:53:40;94808.06;;;-1.80;52.73
64402;BME280;50724;42.376;23.768;2023-02-08T12:56:44;94811.78;;;-1.89;52.93
64402;BME280;50724;42.376;23.768;2023-02-08T12:59:58;94816.03;;;-1.88;53.95
64402;BME280;50724;42.376;23.768;2023-02-08T13:06:26;94821.53;;;-2.52;57.32
64402;BME280;50724;42.376;23.768;2023-02-08T13:12:35;94822.03;;;-2.97;57.00
64402;BME280;50724;42.376;23.768;2023-02-08T13:16:23;94830.09;;;-2.81;56.95
64402;BME280;50724;42.376;23.768;2023-02-08T13:22:12;94838.38;;;-3.01;57.04
64402;BME280;50724;42.376;23.768;2023-02-08T13:25:21;94841.31;;;-3.14;56.20
64402;BME280;50724;42.376;23.768;2023-02-08T13:28:27;94829.13;;;-3.06;56.27
64402;BME280;50724;42.376;23.768;2023-02-08T13:31:41;94829.94;;;-3.04;56.67
64402;BME280;50724;42.376;23.768;2023-02-08T13:34:48;94837.88;;;-2.84;58.14
64402;BME280;50724;42.376;23.768;2023-02-08T13:37:57;94842.09;;;-2.83;57.66
64402;BME280;50724;42.376;23.768;2023-02-08T13:41:07;94851.63;;;-2.88;58.14
64402;BME280;50724;42.376;23.768;2023-02-08T13:44:24;94833.06;;;-3.24;58.88
64402;BME280;50724;42.376;23.768;2023-02-08T13:47:30;94829.94;;;-3.04;58.46
64402;BME280;50724;42.376;23.768;2023-02-08T13:50:44;94834.59;;;-3.18;58.73
64402;BME280;50724;42.376;23.768;2023-02-08T13:56:52;94828.63;;;-3.19;58.59
64402;BME280;50724;42.376;23.768;2023-02-08T14:00:53;94822.13;;;-3.29;57.77
64402;BME280;50724;42.376;23.768;2023-02-08T14:03:35;94824.41;;;-3.20;58.31
64402;BME280;50724;42.376;23.768;2023-02-08T14:07:00;94832.47;;;-3.33;58.46
64402;BME280;50724;42.376;23.768;2023-02-08T14:10:04;94830.53;;;-3.25;58.30
64402;BME280;50724;42.376;23.768;2023-02-08T14:13:24;94830.50;;;-3.24;57.51
64402;BME280;50724;42.376;23.768;2023-02-08T14:19:34;94834.56;;;-3.17;56.58
64402;BME280;50724;42.376;23.768;2023-02-08T14:22:39;94836.44;;;-3.23;56.83
64402;BME280;50724;42.376;23.768;2023-02-08T14:25:49;94827.31;;;-3.32;56.82
64402;BME280;50724;42.376;23.768;2023-02-08T14:28:54;94824.69;;;-3.30;56.73
64402;BME280;50724;42.376;23.768;2023-02-08T14:31:56;94833.94;;;-3.25;56.16
64402;BME280;50724;42.376;23.768;2023-02-08T14:35:08;94831.03;;;-3.43;56.02
64402;BME280;50724;42.376;23.768;2023-02-08T14:44:56;94834.06;;;-3.60;57.92
64402;BME280;50724;42.376;23.768;2023-02-08T14:48:29;94839.47;;;-3.71;58.21
64402;BME280;50724;42.376;23.768;2023-02-08T14:51:32;94846.03;;;-3.94;59.02
64402;BME280;50724;42.376;23.768;2023-02-08T14:54:40;94864.09;;;-4.02;60.40
64402;BME280;50724;42.376;23.768;2023-02-08T14:57:45;94860.75;;;-4.04;61.11
64402;BME280;50724;42.376;23.768;2023-02-08T15:00:50;94867.06;;;-4.19;60.76
64402;BME280;50724;42.376;23.768;2023-02-08T15:03:54;94862.34;;;-4.35;62.69
64402;BME280;50724;42.376;23.768;2023-02-08T15:10:16;94859.97;;;-4.43;63.67
64402;BME280;50724;42.376;23.768;2023-02-08T15:13:21;94865.16;;;-4.46;64.11
64402;BME280;50724;42.376;23.768;2023-02-08T15:16:32;94860.41;;;-4.61;65.19
64402;BME280;50724;42.376;23.768;2023-02-08T15:19:35;94874.97;;;-4.66;64.75
64402;BME280;50724;42.376;23.768;2023-02-08T15:22:46;94850.50;;;-4.74;65.19
64402;BME280;50724;42.376;23.768;2023-02-08T15:26:20;94866.06;;;-4.87;64.88
64402;BME280;50724;42.376;23.768;2023-02-08T15:29:22;94858.63;;;-4.96;64.93
64402;BME280;50724;42.376;23.768;2023-02-08T15:32:25;94863.88;;;-5.03;65.00
64402;BME280;50724;42.376;23.768;2023-02-08T15:35:27;94857.03;;;-5.01;65.06
64402;BME280;50724;42.376;23.768;2023-02-08T15:38:30;94861.56;;;-5.14;65.68
64402;BME280;50724;42.376;23.768;2023-02-08T15:41:32;94861.47;;;-5.11;65.92
64402;BME280;50724;42.376;23.768;2023-02-08T15:44:40;94858.47;;;-5.29;66.84
64402;BME280;50724;42.376;23.768;2023-02-08T15:47:41;94859.50;;;-5.38;67.48
64402;BME280;50724;42.376;23.768;2023-02-08T15:50:42;94859.59;;;-5.42;67.74
64402;BME280;50724;42.376;23.768;2023-02-08T15:53:44;94874.88;;;-5.42;67.94
64402;BME280;50724;42.376;23.768;2023-02-08T15:56:56;94869.06;;;-5.50;68.19
64402;BME280;50724;42.376;23.768;2023-02-08T16:00:02;94869.16;;;-5.53;67.88
64402;BME280;50724;42.376;23.768;2023-02-08T16:03:17;94878.50;;;-5.56;68.24
64402;BME280;50724;42.376;23.768;2023-02-08T16:06:23;94882.84;;;-5.59;68.13
64402;BME280;50724;42.376;23.768;2023-02-08T16:09:26;94875.28;;;-5.64;67.81
64402;BME280;50724;42.376;23.768;2023-02-08T16:12:28;94883.88;;;-5.69;68.39
64402;BME280;50724;42.376;23.768;2023-02-08T16:15:37;94884.75;;;-5.70;68.02
64402;BME280;50724;42.376;23.768;2023-02-08T16:18:42;94868.69;;;-5.75;68.16
64402;BME280;50724;42.376;23.768;2023-02-08T16:21:49;94877.81;;;-5.64;66.97
64402;BME280;50724;42.376;23.768;2023-02-08T16:24:49;94890.78;;;-5.76;67.56
64402;BME280;50724;42.376;23.768;2023-02-08T16:27:50;94892.47;;;-5.75;66.66
64402;BME280;50724;42.376;23.768;2023-02-08T16:30:50;94900.19;;;-5.79;66.78
64402;BME280;50724;42.376;23.768;2023-02-08T16:37:05;94897.78;;;-5.85;67.86
64402;BME280;50724;42.376;23.768;2023-02-08T16:43:40;94904.00;;;-6.01;68.33
64402;BME280;50724;42.376;23.768;2023-02-08T16:46:43;94899.91;;;-6.10;69.06
64402;BME280;50724;42.376;23.768;2023-02-08T16:49:43;94902.44;;;-6.10;69.42
64402;BME280;50724;42.376;23.768;2023-02-08T16:52:59;94905.06;;;-6.16;70.29
64402;BME280;50724;42.376;23.768;2023-02-08T16:56:00;94907.09;;;-6.36;70.35
64402;BME280;50724;42.376;23.768;2023-02-08T16:59:01;94913.13;;;-6.42;70.81
64402;BME280;50724;42.376;23.768;2023-02-08T17:02:01;94906.53;;;-6.55;71.11
64402;BME280;50724;42.376;23.768;2023-02-08T17:05:02;94909.09;;;-6.55;71.31
64402;BME280;50724;42.376;23.768;2023-02-08T17:08:09;94916.03;;;-6.67;71.34
64402;BME280;50724;42.376;23.768;2023-02-08T17:11:11;94918.56;;;-6.67;71.68
64402;BME280;50724;42.376;23.768;2023-02-08T17:14:11;94923.47;;;-6.54;71.44
64402;BME280;50724;42.376;23.768;2023-02-08T17:17:11;94913.34;;;-6.57;71.27
64402;BME280;50724;42.376;23.768;2023-02-08T17:20:18;94925.13;;;-6.51;70.99
64402;BME280;50724;42.376;23.768;2023-02-08T17:23:18;94935.44;;;-6.59;71.46
64402;BME280;50724;42.376;23.768;2023-02-08T17:26:24;94937.41;;;-6.80;73.02
64402;BME280;50724;42.376;23.768;2023-02-08T17:29:28;94931.41;;;-6.73;71.61
64402;BME280;50724;42.376;23.768;2023-02-08T17:32:39;94932.81;;;-6.54;70.93
64402;BME280;50724;42.376;23.768;2023-02-08T17:35:39;94930.31;;;-6.57;70.31
64402;BME280;50724;42.376;23.768;2023-02-08T17:38:41;94939.78;;;-6.67;70.96
64402;BME280;50724;42.376;23.768;2023-02-08T17:41:42;94941.50;;;-6.70;71.19
64402;BME280;50724;42.376;23.768;2023-02-08T17:44:42;94936.38;;;-6.67;71.07
64402;BME280;50724;42.376;23.768;2023-02-08T17:47:43;94943.09;;;-6.62;71.30
64402;BME280;50724;42.376;23.768;2023-02-08T17:50:44;94951.59;;;-6.61;71.11
64402;BME280;50724;42.376;23.768;2023-02-08T17:53:50;94950.66;;;-6.57;71.14
64402;BME280;50724;42.376;23.768;2023-02-08T17:56:50;94964.38;;;-6.66;71.16
64402;BME280;50724;42.376;23.768;2023-02-08T17:59:55;94963.63;;;-6.75;71.58
64402;BME280;50724;42.376;23.768;2023-02-08T18:02:56;94957.69;;;-6.77;71.50
64402;BME280;50724;42.376;23.768;2023-02-08T18:05:58;94955.31;;;-6.88;72.04
64402;BME280;50724;42.376;23.768;2023-02-08T18:08:58;94958.88;;;-7.03;72.28
64402;BME280;50724;42.376;23.768;2023-02-08T18:11:59;94954.78;;;-7.13;72.87
64402;BME280;50724;42.376;23.768;2023-02-08T18:14:59;94956.41;;;-7.09;73.07
64402;BME280;50724;42.376;23.768;2023-02-08T18:18:00;94963.59;;;-7.44;74.00
64402;BME280;50724;42.376;23.768;2023-02-08T18:21:00;94957.66;;;-7.44;74.31
64402;BME280;50724;42.376;23.768;2023-02-08T18:24:02;94963.69;;;-7.56;74.84
64402;BME280;50724;42.376;23.768;2023-02-08T18:27:03;94957.84;;;-7.64;74.96